createdAt,value
2018-09-20T00:00:45.403Z,18.13
2018-09-20T00:01:45.387Z,18.12
2018-09-20T00:02:45.383Z,18.1
2018-09-20T00:03:45.364Z,18.13
2018-09-20T00:04:45.357Z,18.12
2018-09-20T00:05:45.339Z,18.03
2018-09-20T00:06:45.063Z,18.07
2018-09-20T00:07:45.058Z,18.12
2018-09-20T00:08:45.310Z,18.06
2018-09-20T00:09:45.291Z,18.03
2018-09-20T00:10:45.021Z,17.94
2018-09-20T00:11:44.746Z,17.97
2018-09-20T00:12:44.993Z,18
2018-09-20T00:13:45.243Z,17.95
2018-09-20T00:14:44.977Z,17.95
2018-09-20T00:15:45.226Z,17.91
2018-09-20T00:16:45.418Z,17.94
2018-09-20T00:17:44.941Z,17.91
2018-09-20T00:18:44.928Z,17.92
2018-09-20T00:19:44.912Z,17.95
2018-09-20T00:20:45.166Z,17.84
2018-09-20T00:21:44.897Z,17.88
2018-09-20T00:22:44.880Z,17.95
2018-09-20T00:23:44.865Z,17.94
2018-09-20T00:24:44.862Z,17.91
2018-09-20T00:25:45.108Z,17.88
2018-09-20T00:26:45.097Z,18
2018-09-20T00:27:44.832Z,17.92
2018-09-20T00:28:45.073Z,17.87
2018-09-20T00:29:44.845Z,17.94
2018-09-20T00:30:44.792Z,17.85
2018-09-20T00:31:45.036Z,17.92
2018-09-20T00:32:45.029Z,17.91
2018-09-20T00:33:45.021Z,17.91
2018-09-20T00:34:45.005Z,17.89
2018-09-20T00:35:44.994Z,17.81
2018-09-20T00:36:44.986Z,17.87
2018-09-20T00:37:44.963Z,17.87
2018-09-20T00:38:44.638Z,17.88
2018-09-20T00:39:44.689Z,17.81
2018-09-20T00:40:44.676Z,17.88
2018-09-20T00:41:44.927Z,17.82
2018-09-20T00:42:44.388Z,17.84
2018-09-20T00:43:44.644Z,17.85
2018-09-20T00:44:44.629Z,17.85
2018-09-20T00:45:44.880Z,17.79
2018-09-20T00:46:44.876Z,17.82
2018-09-20T00:47:45.052Z,17.74
2018-09-20T00:48:44.577Z,17.78
2018-09-20T00:49:44.561Z,17.73
2018-09-20T00:50:44.288Z,17.73
2018-09-20T00:51:44.542Z,17.74
2018-09-20T00:52:44.804Z,17.71
2018-09-20T00:53:44.792Z,17.71
2018-09-20T00:54:44.243Z,17.78
2018-09-20T00:55:44.495Z,17.78
2018-09-20T00:56:44.489Z,17.7
2018-09-20T00:57:44.210Z,17.64
2018-09-20T00:58:44.467Z,17.63
2018-09-20T00:59:44.715Z,17.67
2018-09-20T01:00:44.704Z,17.67
2018-09-20T01:01:44.168Z,17.67
2018-09-20T01:02:44.162Z,17.64
2018-09-20T01:03:44.669Z,17.62
2018-09-20T01:04:44.658Z,17.55
2018-09-20T01:05:44.644Z,17.51
2018-09-20T01:06:44.367Z,17.55
2018-09-20T01:07:44.633Z,17.5
2018-09-20T01:08:44.616Z,17.47
2018-09-20T01:09:44.334Z,17.51
2018-09-20T01:10:44.607Z,17.43
2018-09-20T01:11:44.575Z,17.51
2018-09-20T01:12:44.037Z,17.47
2018-09-20T01:13:44.028Z,17.54
2018-09-20T01:14:44.023Z,17.54
2018-09-20T01:15:44.007Z,17.41
2018-09-20T01:16:44.252Z,17.36
2018-09-20T01:17:44.507Z,17.4
2018-09-20T01:18:44.501Z,17.33
2018-09-20T01:19:44.419Z,17.28
2018-09-20T01:20:44.471Z,17.32
2018-09-20T01:21:44.194Z,17.32
2018-09-20T01:22:44.184Z,17.32
2018-09-20T01:23:44.438Z,17.26
2018-09-20T01:24:44.189Z,17.32
2018-09-20T01:25:44.143Z,17.18
2018-09-20T01:26:44.130Z,17.22
2018-09-20T01:27:44.384Z,17.17
2018-09-20T01:28:44.373Z,17.18
2018-09-20T01:29:43.829Z,17.23
2018-09-20T01:30:44.095Z,17.13
2018-09-20T01:31:44.075Z,17.17
2018-09-20T01:32:44.319Z,17.13
2018-09-20T01:33:44.047Z,17.11
2018-09-20T01:34:44.040Z,17.11
2018-09-20T01:35:44.288Z,17.14
2018-09-20T01:36:44.282Z,17.06
2018-09-20T01:37:44.271Z,17.11
2018-09-20T01:38:43.729Z,17.08
2018-09-20T01:39:44.080Z,17.08
2018-09-20T01:40:43.964Z,16.99
2018-09-20T01:41:43.957Z,17.03
2018-09-20T01:42:43.948Z,17.03
2018-09-20T01:43:43.929Z,17.06
2018-09-20T01:44:43.935Z,17.06
2018-09-20T01:45:44.172Z,17.03
2018-09-20T01:46:44.161Z,16.99
2018-09-20T01:47:43.623Z,16.95
2018-09-20T01:48:43.871Z,16.93
2018-09-20T01:49:43.871Z,16.93
2018-09-20T01:50:44.110Z,16.9
2018-09-20T01:51:43.831Z,16.86
2018-09-20T01:52:44.084Z,16.89
2018-09-20T01:53:43.544Z,16.93
2018-09-20T01:54:44.068Z,16.89
2018-09-20T01:55:43.788Z,16.89
2018-09-20T01:56:44.040Z,16.89
2018-09-20T01:57:44.029Z,16.85
2018-09-20T01:58:44.011Z,16.75
2018-09-20T01:59:43.744Z,16.78
2018-09-20T02:00:43.726Z,16.77
2018-09-20T02:01:43.712Z,16.75
2018-09-20T02:02:43.699Z,16.75
2018-09-20T02:03:43.956Z,16.83
2018-09-20T02:04:43.686Z,16.88
2018-09-20T02:05:43.665Z,16.77
2018-09-20T02:06:43.387Z,16.75
2018-09-20T02:07:43.913Z,16.7
2018-09-20T02:08:43.891Z,16.71
2018-09-20T02:09:43.884Z,16.71
2018-09-20T02:10:43.870Z,16.73
2018-09-20T02:11:43.602Z,16.77
2018-09-20T02:12:43.577Z,16.65
2018-09-20T02:13:43.568Z,16.62
2018-09-20T02:14:43.868Z,16.63
2018-09-20T02:15:43.549Z,16.6
2018-09-20T02:16:43.530Z,16.62
2018-09-20T02:17:43.781Z,16.58
2018-09-20T02:18:43.772Z,16.56
2018-09-20T02:19:43.505Z,16.56
2018-09-20T02:20:43.486Z,16.58
2018-09-20T02:21:43.939Z,16.62
2018-09-20T02:22:43.724Z,16.6
2018-09-20T02:23:43.713Z,16.55
2018-09-20T02:24:43.692Z,16.5
2018-09-20T02:25:43.682Z,16.5
2018-09-20T02:26:43.406Z,16.56
2018-09-20T02:27:43.657Z,16.5
2018-09-20T02:28:43.389Z,16.45
2018-09-20T02:29:43.375Z,16.49
2018-09-20T02:30:43.638Z,16.48
2018-09-20T02:31:43.624Z,16.45
2018-09-20T02:32:43.595Z,16.42
2018-09-20T02:33:43.606Z,16.48
2018-09-20T02:34:43.312Z,16.44
2018-09-20T02:35:43.308Z,16.45
2018-09-20T02:36:43.549Z,16.38
2018-09-20T02:37:43.008Z,16.42
2018-09-20T02:38:43.526Z,16.38
2018-09-20T02:39:43.262Z,16.35
2018-09-20T02:40:43.511Z,16.31
2018-09-20T02:41:42.961Z,16.38
2018-09-20T02:42:43.473Z,16.34
2018-09-20T02:43:43.197Z,16.34
2018-09-20T02:44:43.191Z,16.37
2018-09-20T02:45:43.216Z,16.41
2018-09-20T02:46:43.422Z,16.37
2018-09-20T02:47:43.625Z,16.35
2018-09-20T02:48:43.158Z,16.37
2018-09-20T02:49:43.130Z,16.38
2018-09-20T02:50:43.380Z,16.27
2018-09-20T02:51:42.863Z,16.25
2018-09-20T02:52:43.357Z,16.26
2018-09-20T02:53:42.816Z,16.27
2018-09-20T02:54:43.332Z,16.25
2018-09-20T02:55:43.047Z,16.31
2018-09-20T02:56:43.295Z,16.26
2018-09-20T02:57:43.313Z,16.23
2018-09-20T02:58:43.275Z,16.23
2018-09-20T02:59:43.011Z,16.2
2018-09-20T03:00:43.262Z,16.22
2018-09-20T03:01:43.239Z,16.22
2018-09-20T03:02:43.224Z,16.18
2018-09-20T03:03:43.216Z,16.15
2018-09-20T03:04:43.204Z,16.15
2018-09-20T03:05:42.952Z,16.2
2018-09-20T03:06:43.183Z,16.18
2018-09-20T03:07:43.167Z,16.23
2018-09-20T03:08:43.156Z,16.14
2018-09-20T03:09:42.875Z,16.14
2018-09-20T03:10:42.866Z,16.14
2018-09-20T03:11:42.845Z,16.04
2018-09-20T03:12:42.838Z,16.04
2018-09-20T03:13:43.086Z,16.12
2018-09-20T03:14:43.094Z,16.07
2018-09-20T03:15:43.064Z,16.06
2018-09-20T03:16:42.800Z,16.11
2018-09-20T03:17:43.047Z,16.03
2018-09-20T03:18:43.026Z,16.07
2018-09-20T03:19:43.016Z,16.03
2018-09-20T03:20:42.470Z,16.06
2018-09-20T03:21:42.470Z,15.99
2018-09-20T03:22:42.986Z,16.07
2018-09-20T03:23:42.958Z,16
2018-09-20T03:24:42.948Z,16
2018-09-20T03:25:42.671Z,16.03
2018-09-20T03:26:42.655Z,16.01
2018-09-20T03:27:42.906Z,16.04
2018-09-20T03:28:42.632Z,16.03
2018-09-20T03:29:42.622Z,15.97
2018-09-20T03:30:42.950Z,15.97
2018-09-20T03:31:42.614Z,16.01
2018-09-20T03:32:42.585Z,15.97
2018-09-20T03:33:42.591Z,15.93
2018-09-20T03:34:42.823Z,16.01
2018-09-20T03:35:42.543Z,15.89
2018-09-20T03:36:42.526Z,15.94
2018-09-20T03:37:42.780Z,15.89
2018-09-20T03:38:42.781Z,15.89
2018-09-20T03:39:42.770Z,15.96
2018-09-20T03:40:42.744Z,15.93
2018-09-20T03:41:42.478Z,15.96
2018-09-20T03:42:42.462Z,15.99
2018-09-20T03:43:42.440Z,15.99
2018-09-20T03:44:42.428Z,15.93
2018-09-20T03:45:42.420Z,15.97
2018-09-20T03:46:42.410Z,15.93
2018-09-20T03:47:42.128Z,15.94
2018-09-20T03:48:42.127Z,15.94
2018-09-20T03:49:42.109Z,15.94
2018-09-20T03:50:42.088Z,15.94
2018-09-20T03:51:42.614Z,15.93
2018-09-20T03:52:42.067Z,15.94
2018-09-20T03:53:42.323Z,15.92
2018-09-20T03:54:42.572Z,15.88
2018-09-20T03:55:42.555Z,15.89
2018-09-20T03:56:42.543Z,15.92
2018-09-20T03:57:42.529Z,15.92
2018-09-20T03:58:41.986Z,15.93
2018-09-20T03:59:42.239Z,15.86
2018-09-20T04:00:42.229Z,15.86
2018-09-20T04:01:42.500Z,15.89
2018-09-20T04:02:42.207Z,15.89
2018-09-20T04:03:42.194Z,15.94
2018-09-20T04:04:42.185Z,15.92
2018-09-20T04:05:42.430Z,15.93
2018-09-20T04:06:42.426Z,15.92
2018-09-20T04:07:42.144Z,15.97
2018-09-20T04:08:42.397Z,15.96
2018-09-20T04:09:42.579Z,16.04
2018-09-20T04:10:42.366Z,15.96
2018-09-20T04:11:42.089Z,15.96
2018-09-20T04:12:42.346Z,15.93
2018-09-20T04:13:41.797Z,15.86
2018-09-20T04:14:42.317Z,15.88
2018-09-20T04:15:42.312Z,15.96
2018-09-20T04:16:41.757Z,15.89
2018-09-20T04:17:42.283Z,15.92
2018-09-20T04:18:42.001Z,15.92
2018-09-20T04:19:41.987Z,15.92
2018-09-20T04:20:41.978Z,15.88
2018-09-20T04:21:41.695Z,15.93
2018-09-20T04:22:42.209Z,15.92
2018-09-20T04:23:41.933Z,15.92
2018-09-20T04:24:42.183Z,15.94
2018-09-20T04:25:41.913Z,15.92
2018-09-20T04:26:42.165Z,15.94
2018-09-20T04:27:41.886Z,15.92
2018-09-20T04:28:41.875Z,15.94
2018-09-20T04:29:41.599Z,16
2018-09-20T04:30:41.848Z,15.99
2018-09-20T04:31:41.954Z,15.93
2018-09-20T04:32:42.098Z,15.94
2018-09-20T04:33:41.806Z,15.93
2018-09-20T04:34:42.064Z,15.93
2018-09-20T04:35:41.795Z,15.94
2018-09-20T04:36:42.037Z,15.92
2018-09-20T04:37:42.016Z,15.97
2018-09-20T04:38:42.010Z,15.92
2018-09-20T04:39:41.734Z,15.89
2018-09-20T04:40:41.713Z,15.99
2018-09-20T04:41:41.969Z,15.99
2018-09-20T04:42:41.953Z,15.99
2018-09-20T04:43:41.420Z,15.94
2018-09-20T04:44:41.673Z,16.06
2018-09-20T04:45:41.914Z,16.04
2018-09-20T04:46:41.643Z,16.03
2018-09-20T04:47:41.573Z,15.99
2018-09-20T04:48:41.617Z,16.01
2018-09-20T04:49:41.873Z,15.99
2018-09-20T04:50:41.593Z,15.94
2018-09-20T04:51:41.637Z,16
2018-09-20T04:52:41.564Z,15.89
2018-09-20T04:53:41.559Z,15.93
2018-09-20T04:54:41.808Z,15.96
2018-09-20T04:55:41.528Z,15.96
2018-09-20T04:56:41.524Z,15.93
2018-09-20T04:57:41.748Z,15.94
2018-09-20T04:58:41.495Z,15.89
2018-09-20T04:59:41.738Z,15.94
2018-09-20T05:00:41.462Z,15.92
2018-09-20T05:01:41.452Z,15.89
2018-09-20T05:02:41.714Z,15.93
2018-09-20T05:03:41.167Z,15.94
2018-09-20T05:04:41.420Z,16.01
2018-09-20T05:05:41.135Z,15.93
2018-09-20T05:06:41.382Z,15.89
2018-09-20T05:07:41.370Z,15.94
2018-09-20T05:08:41.358Z,15.93
2018-09-20T05:09:41.092Z,15.97
2018-09-20T05:10:41.606Z,16.01
2018-09-20T05:11:41.321Z,16.01
2018-09-20T05:12:41.360Z,16.03
2018-09-20T05:13:41.293Z,16.06
2018-09-20T05:14:41.546Z,16.07
2018-09-20T05:15:41.537Z,16.06
2018-09-20T05:16:41.519Z,16.09
2018-09-20T05:17:41.507Z,16.12
2018-09-20T05:18:41.502Z,16.15
2018-09-20T05:19:40.965Z,16.2
2018-09-20T05:20:40.940Z,16.12
2018-09-20T05:21:41.197Z,16.15
2018-09-20T05:22:41.439Z,16.15
2018-09-20T05:23:41.168Z,16.14
2018-09-20T05:24:41.161Z,16.15
2018-09-20T05:25:41.141Z,16.15
2018-09-20T05:26:41.389Z,16.16
2018-09-20T05:27:41.383Z,16.18
2018-09-20T05:28:41.109Z,16.22
2018-09-20T05:29:41.096Z,16.2
2018-09-20T05:30:40.815Z,16.16
2018-09-20T05:31:41.337Z,16.18
2018-09-20T05:32:41.332Z,16.16
2018-09-20T05:33:40.782Z,16.18
2018-09-20T05:34:41.028Z,16.25
2018-09-20T05:35:41.571Z,16.2
2018-09-20T05:36:41.003Z,16.18
2018-09-20T05:37:40.726Z,16.15
2018-09-20T05:38:40.717Z,16.18
2018-09-20T05:39:41.232Z,16.22
2018-09-20T05:40:40.687Z,16.15
2018-09-20T05:41:41.212Z,16.15
2018-09-20T05:42:41.193Z,16.15
2018-09-20T05:43:41.096Z,16.2
2018-09-20T05:44:41.172Z,16.18
2018-09-20T05:45:41.152Z,16.26
2018-09-20T05:46:40.872Z,16.22
2018-09-20T05:47:40.864Z,16.25
2018-09-20T05:48:40.855Z,16.31
2018-09-20T05:49:41.105Z,16.26
2018-09-20T05:50:41.133Z,16.33
2018-09-20T05:51:40.824Z,16.33
2018-09-20T05:52:41.061Z,16.33
2018-09-20T05:53:40.521Z,16.34
2018-09-20T05:54:40.775Z,16.41
2018-09-20T05:55:40.766Z,16.41
2018-09-20T05:56:40.749Z,16.41
2018-09-20T05:57:40.737Z,16.34
2018-09-20T05:58:41.009Z,16.48
2018-09-20T05:59:41.006Z,16.45
2018-09-20T06:00:40.973Z,16.48
2018-09-20T06:01:40.702Z,16.48
2018-09-20T06:02:40.676Z,16.48
2018-09-20T06:03:40.662Z,16.48
2018-09-20T06:04:40.649Z,16.49
2018-09-20T06:05:40.713Z,16.42
2018-09-20T06:06:40.885Z,16.42
2018-09-20T06:07:40.879Z,16.48
2018-09-20T06:08:40.873Z,16.49
2018-09-20T06:09:40.847Z,16.5
2018-09-20T06:10:40.842Z,16.55
2018-09-20T06:11:40.563Z,16.58
2018-09-20T06:12:40.548Z,16.58
2018-09-20T06:13:40.532Z,16.6
2018-09-20T06:14:40.529Z,16.63
2018-09-20T06:15:40.781Z,16.71
2018-09-20T06:16:40.766Z,16.7
2018-09-20T06:17:40.747Z,16.74
2018-09-20T06:18:40.738Z,16.8
2018-09-20T06:19:40.732Z,16.68
2018-09-20T06:20:40.451Z,16.81
2018-09-20T06:21:40.496Z,16.88
2018-09-20T06:22:40.688Z,16.99
2018-09-20T06:23:40.153Z,17.03
2018-09-20T06:24:40.663Z,16.99
2018-09-20T06:25:40.131Z,17.06
2018-09-20T06:26:40.118Z,17.14
2018-09-20T06:27:40.464Z,17.18
2018-09-20T06:28:40.356Z,17.28
2018-09-20T06:29:40.342Z,17.3
2018-09-20T06:30:40.326Z,17.36
2018-09-20T06:31:40.320Z,17.41
2018-09-20T06:32:40.034Z,17.54
2018-09-20T06:33:40.288Z,17.43
2018-09-20T06:34:40.281Z,17.43
2018-09-20T06:35:40.264Z,17.59
2018-09-20T06:36:40.515Z,17.67
2018-09-20T06:37:40.508Z,17.67
2018-09-20T06:38:40.228Z,17.78
2018-09-20T06:39:40.474Z,17.87
2018-09-20T06:40:39.944Z,17.85
2018-09-20T06:41:40.200Z,18.04
2018-09-20T06:42:40.447Z,17.92
2018-09-20T06:43:40.498Z,18.04
2018-09-20T06:44:40.422Z,18.13
2018-09-20T06:45:40.143Z,18.15
2018-09-20T06:46:40.130Z,18.18
2018-09-20T06:47:40.328Z,18.25
2018-09-20T06:48:40.370Z,18.39
2018-09-20T06:49:40.360Z,18.44
2018-09-20T06:50:39.821Z,18.5
2018-09-20T06:51:40.087Z,18.61
2018-09-20T06:52:40.067Z,18.55
2018-09-20T06:53:40.316Z,18.68
2018-09-20T06:54:40.052Z,18.74
2018-09-20T06:55:40.021Z,18.79
2018-09-20T06:56:40.126Z,18.91
2018-09-20T06:57:40.014Z,18.99
2018-09-20T06:58:40.248Z,19.02
2018-09-20T06:59:39.717Z,19.06
2018-09-20T07:00:40.239Z,19.05
2018-09-20T07:01:40.225Z,19.11
2018-09-20T07:02:39.954Z,19.18
2018-09-20T07:03:39.941Z,19.2
2018-09-20T07:04:39.922Z,19.35
2018-09-20T07:05:39.906Z,19.29
2018-09-20T07:06:39.892Z,19.4
2018-09-20T07:07:40.149Z,19.35
2018-09-20T07:08:39.874Z,19.46
2018-09-20T07:09:40.130Z,19.5
2018-09-20T07:10:39.853Z,19.53
2018-09-20T07:11:39.838Z,19.68
2018-09-20T07:12:39.836Z,19.68
2018-09-20T07:13:40.185Z,19.72
2018-09-20T07:14:39.804Z,19.78
2018-09-20T07:15:39.802Z,19.79
2018-09-20T07:16:39.780Z,19.8
2018-09-20T07:17:40.034Z,19.86
2018-09-20T07:18:40.018Z,19.94
2018-09-20T07:19:39.747Z,19.87
2018-09-20T07:20:39.738Z,20
2018-09-20T07:21:39.985Z,20.05
2018-09-20T07:22:39.976Z,20.1
2018-09-20T07:23:39.701Z,20.08
2018-09-20T07:24:39.951Z,20.23
2018-09-20T07:25:40.172Z,20.27
2018-09-20T07:26:39.668Z,20.28
2018-09-20T07:27:39.933Z,20.27
2018-09-20T07:28:39.915Z,20.43
2018-09-20T07:29:39.640Z,20.41
2018-09-20T07:30:39.897Z,20.34
2018-09-20T07:31:39.616Z,20.41
2018-09-20T07:32:39.661Z,20.49
2018-09-20T07:33:39.605Z,20.46
2018-09-20T07:34:39.585Z,20.53
2018-09-20T07:35:39.898Z,20.58
2018-09-20T07:36:39.297Z,20.69
2018-09-20T07:37:39.823Z,20.66
2018-09-20T07:38:39.805Z,20.77
2018-09-20T07:39:39.800Z,20.81
2018-09-20T07:40:39.256Z,20.81
2018-09-20T07:41:39.244Z,20.84
2018-09-20T07:42:39.230Z,20.86
2018-09-20T07:43:39.451Z,21.01
2018-09-20T07:44:39.736Z,20.93
2018-09-20T07:45:39.472Z,21.06
2018-09-20T07:46:39.461Z,21.05
2018-09-20T07:47:39.446Z,21.21
2018-09-20T07:48:39.700Z,21.24
2018-09-20T07:49:39.687Z,21.29
2018-09-20T07:50:39.676Z,21.32
2018-09-20T07:51:39.406Z,21.32
2018-09-20T07:52:39.657Z,21.41
2018-09-20T07:53:39.924Z,21.41
2018-09-20T07:54:39.646Z,21.48
2018-09-20T07:55:39.095Z,21.54
2018-09-20T07:56:39.115Z,21.5
2018-09-20T07:57:39.344Z,21.57
2018-09-20T07:58:39.326Z,21.63
2018-09-20T07:59:39.583Z,21.67
2018-09-20T08:00:39.317Z,21.79
2018-09-20T08:01:39.947Z,21.76
2018-09-20T08:02:39.552Z,21.82
2018-09-20T08:03:39.016Z,21.76
2018-09-20T08:04:39.003Z,21.9
2018-09-20T08:05:39.528Z,21.91
2018-09-20T08:06:39.517Z,21.95
2018-09-20T08:07:39.506Z,21.95
2018-09-20T08:08:38.967Z,21.99
2018-09-20T08:09:39.218Z,22.07
2018-09-20T08:10:39.481Z,22.23
2018-09-20T08:11:39.473Z,22.29
2018-09-20T08:12:39.195Z,22.43
2018-09-20T08:13:39.444Z,22.38
2018-09-20T08:14:38.907Z,22.34
2018-09-20T08:15:39.448Z,22.29
2018-09-20T08:16:39.183Z,22.37
2018-09-20T08:17:39.399Z,22.25
2018-09-20T08:18:39.395Z,22.27
2018-09-20T08:19:39.121Z,22.13
2018-09-20T08:20:39.383Z,22.14
2018-09-20T08:21:39.244Z,22.2
2018-09-20T08:22:39.389Z,22.13
2018-09-20T08:23:39.092Z,22.13
2018-09-20T08:24:38.818Z,22.13
2018-09-20T08:25:39.332Z,22.06
2018-09-20T08:26:39.325Z,22.02
2018-09-20T08:27:39.096Z,22.06
2018-09-20T08:28:38.776Z,21.99
2018-09-20T08:29:39.304Z,21.99
2018-09-20T08:30:39.285Z,21.97
2018-09-20T08:31:38.746Z,21.94
2018-09-20T08:32:39.271Z,21.95
2018-09-20T08:33:38.726Z,21.95
2018-09-20T08:34:38.722Z,22.06
2018-09-20T08:35:38.982Z,22.09
2018-09-20T08:36:39.239Z,21.98
2018-09-20T08:37:39.139Z,22.1
2018-09-20T08:38:39.212Z,22.06
2018-09-20T08:39:39.201Z,22.1
2018-09-20T08:40:38.660Z,22.17
2018-09-20T08:41:38.918Z,22.06
2018-09-20T08:42:38.921Z,22.02
2018-09-20T08:43:38.917Z,22.1
2018-09-20T08:44:39.153Z,22.07
2018-09-20T08:45:39.168Z,22.14
2018-09-20T08:46:38.873Z,22.14
2018-09-20T08:47:39.000Z,22.27
2018-09-20T08:48:39.121Z,22.29
2018-09-20T08:49:38.844Z,22.32
2018-09-20T08:50:38.837Z,22.29
2018-09-20T08:51:38.827Z,22.43
2018-09-20T08:52:38.822Z,22.49
2018-09-20T08:53:38.804Z,22.44
2018-09-20T08:54:39.066Z,22.52
2018-09-20T08:55:38.792Z,22.47
2018-09-20T08:56:38.796Z,22.54
2018-09-20T08:57:38.502Z,22.53
2018-09-20T08:58:38.775Z,22.54
2018-09-20T08:59:38.485Z,22.62
2018-09-20T09:00:38.749Z,22.59
2018-09-20T09:01:38.727Z,22.74
2018-09-20T09:02:38.729Z,22.74
2018-09-20T09:03:38.708Z,22.82
2018-09-20T09:04:39.181Z,22.71
2018-09-20T09:05:38.969Z,22.82
2018-09-20T09:06:38.956Z,22.82
2018-09-20T09:07:38.944Z,22.89
2018-09-20T09:08:38.665Z,22.9
2018-09-20T09:09:38.918Z,22.89
2018-09-20T09:10:38.652Z,22.97
2018-09-20T09:11:38.643Z,23.02
2018-09-20T09:12:38.367Z,22.99
2018-09-20T09:13:38.617Z,23.04
2018-09-20T09:14:38.898Z,23.04
2018-09-20T09:15:38.877Z,23.12
2018-09-20T09:16:38.598Z,23.14
2018-09-20T09:17:38.581Z,23.09
2018-09-20T09:18:38.837Z,23.08
2018-09-20T09:19:38.369Z,23.27
2018-09-20T09:20:38.821Z,23.22
2018-09-20T09:21:38.852Z,23.24
2018-09-20T09:22:38.828Z,23.29
2018-09-20T09:23:38.281Z,23.35
2018-09-20T09:24:38.265Z,23.4
2018-09-20T09:25:38.249Z,23.4
2018-09-20T09:26:38.777Z,23.35
2018-09-20T09:27:38.772Z,23.35
2018-09-20T09:28:38.253Z,23.43
2018-09-20T09:29:38.482Z,23.46
2018-09-20T09:30:38.738Z,23.42
2018-09-20T09:31:38.730Z,23.38
2018-09-20T09:32:38.716Z,23.53
2018-09-20T09:33:38.706Z,23.6
2018-09-20T09:34:38.435Z,23.62
2018-09-20T09:35:38.421Z,23.67
2018-09-20T09:36:38.417Z,23.68
2018-09-20T09:37:38.671Z,23.75
2018-09-20T09:38:38.659Z,23.77
2018-09-20T09:39:38.395Z,23.86
2018-09-20T09:40:38.379Z,23.86
2018-09-20T09:41:38.643Z,23.94
2018-09-20T09:42:38.361Z,23.98
2018-09-20T09:43:38.094Z,24.07
2018-09-20T09:44:38.088Z,24.08
2018-09-20T09:45:38.333Z,24.14
2018-09-20T09:46:38.336Z,24.16
2018-09-20T09:47:38.055Z,24.05
2018-09-20T09:48:38.618Z,24.05
2018-09-20T09:49:38.576Z,24.14
2018-09-20T09:50:38.299Z,24.19
2018-09-20T09:51:38.291Z,24.29
2018-09-20T09:52:38.278Z,24.31
2018-09-20T09:53:38.267Z,24.34
2018-09-20T09:54:38.358Z,24.29
2018-09-20T09:55:38.520Z,24.44
2018-09-20T09:56:38.513Z,24.39
2018-09-20T09:57:38.500Z,24.42
2018-09-20T09:58:38.492Z,24.45
2018-09-20T09:59:38.610Z,24.45
2018-09-20T10:00:38.219Z,24.44
2018-09-20T10:01:38.468Z,24.41
2018-09-20T10:02:38.313Z,24.41
2018-09-20T10:03:38.201Z,24.35
2018-09-20T10:04:38.444Z,24.42
2018-09-20T10:05:38.181Z,24.44
2018-09-20T10:06:38.433Z,24.42
2018-09-20T10:07:37.899Z,24.45
2018-09-20T10:08:38.144Z,24.45
2018-09-20T10:09:37.873Z,24.52
2018-09-20T10:10:38.139Z,24.57
2018-09-20T10:11:37.867Z,24.61
2018-09-20T10:12:38.109Z,24.67
2018-09-20T10:13:38.489Z,24.63
2018-09-20T10:14:38.105Z,24.77
2018-09-20T10:15:37.835Z,24.76
2018-09-20T10:16:38.088Z,24.77
2018-09-20T10:17:38.079Z,24.75
2018-09-20T10:18:38.334Z,24.63
2018-09-20T10:19:38.060Z,24.63
2018-09-20T10:20:38.318Z,24.6
2018-09-20T10:21:38.322Z,24.77
2018-09-20T10:22:38.311Z,24.88
2018-09-20T10:23:38.028Z,24.97
2018-09-20T10:24:38.023Z,24.91
2018-09-20T10:25:38.292Z,24.77
2018-09-20T10:26:38.012Z,24.8
2018-09-20T10:27:38.266Z,24.85
2018-09-20T10:28:37.994Z,24.95
2018-09-20T10:29:37.721Z,24.97
2018-09-20T10:30:37.983Z,24.88
2018-09-20T10:31:37.972Z,24.79
2018-09-20T10:32:37.970Z,24.82
2018-09-20T10:33:37.701Z,24.85
2018-09-20T10:34:38.215Z,24.88
2018-09-20T10:35:37.948Z,24.98
2018-09-20T10:36:38.205Z,24.94
2018-09-20T10:37:37.670Z,25.05
2018-09-20T10:38:37.926Z,25.09
2018-09-20T10:39:38.180Z,24.95
2018-09-20T10:40:37.911Z,25.07
2018-09-20T10:41:37.910Z,25.06
2018-09-20T10:42:37.901Z,25.02
2018-09-20T10:43:38.155Z,25.06
2018-09-20T10:44:37.885Z,25.06
2018-09-20T10:45:38.144Z,25.05
2018-09-20T10:46:38.128Z,24.98
2018-09-20T10:47:37.857Z,24.98
2018-09-20T10:48:37.851Z,24.76
2018-09-20T10:49:37.846Z,24.9
2018-09-20T10:50:37.577Z,25.01
2018-09-20T10:51:38.095Z,25.02
2018-09-20T10:52:37.564Z,24.91
2018-09-20T10:53:37.815Z,25
2018-09-20T10:54:37.948Z,24.97
2018-09-20T10:55:38.062Z,24.92
2018-09-20T10:56:37.806Z,24.9
2018-09-20T10:57:38.059Z,24.95
2018-09-20T10:58:37.516Z,24.92
2018-09-20T10:59:37.781Z,24.95
2018-09-20T11:00:37.511Z,24.98
2018-09-20T11:01:38.039Z,24.97
2018-09-20T11:02:38.021Z,24.95
2018-09-20T11:03:37.751Z,24.95
2018-09-20T11:04:37.739Z,24.97
2018-09-20T11:05:37.739Z,25.05
2018-09-20T11:06:38.003Z,25.19
2018-09-20T11:07:37.997Z,25.42
2018-09-20T11:08:38.089Z,25.34
2018-09-20T11:09:37.450Z,25.35
2018-09-20T11:10:38.313Z,25.39
2018-09-20T11:11:37.698Z,25.56
2018-09-20T11:12:37.724Z,25.5
2018-09-20T11:13:37.943Z,25.61
2018-09-20T11:14:37.939Z,25.62
2018-09-20T11:15:37.930Z,25.53
2018-09-20T11:16:37.937Z,25.49
2018-09-20T11:17:37.925Z,25.49
2018-09-20T11:18:37.381Z,25.64
2018-09-20T11:19:37.653Z,25.54
2018-09-20T11:20:37.897Z,25.52
2018-09-20T11:21:37.632Z,25.65
2018-09-20T11:22:37.886Z,25.72
2018-09-20T11:23:37.622Z,25.83
2018-09-20T11:24:37.878Z,25.91
2018-09-20T11:25:37.602Z,25.94
2018-09-20T11:26:37.601Z,25.91
2018-09-20T11:27:37.878Z,25.94
2018-09-20T11:28:37.860Z,25.94
2018-09-20T11:29:37.317Z,26.02
2018-09-20T11:30:37.786Z,26.04
2018-09-20T11:31:37.302Z,25.97
2018-09-20T11:32:37.573Z,25.94
2018-09-20T11:33:37.297Z,26.04
2018-09-20T11:34:37.565Z,26.02
2018-09-20T11:35:37.813Z,25.94
2018-09-20T11:36:37.540Z,25.93
2018-09-20T11:37:37.805Z,25.93
2018-09-20T11:38:37.533Z,26.18
2018-09-20T11:39:37.257Z,26.4
2018-09-20T11:40:37.781Z,26.43
2018-09-20T11:41:37.253Z,26.59
2018-09-20T11:42:37.510Z,26.62
2018-09-20T11:43:37.241Z,26.81
2018-09-20T11:44:37.501Z,26.94
2018-09-20T11:45:37.766Z,27.06
2018-09-20T11:46:37.264Z,27.19
2018-09-20T11:47:37.225Z,27.28
2018-09-20T11:48:37.486Z,27.54
2018-09-20T11:49:37.485Z,27.48
2018-09-20T11:50:37.219Z,27.46
2018-09-20T11:51:37.481Z,27.64
2018-09-20T11:52:37.475Z,27.53
2018-09-20T11:53:37.741Z,27.43
2018-09-20T11:54:37.471Z,27.24
2018-09-20T11:55:37.733Z,27.36
2018-09-20T11:56:37.474Z,27.69
2018-09-20T11:57:37.471Z,27.85
2018-09-20T11:58:37.469Z,27.95
2018-09-20T11:59:37.726Z,28.16
2018-09-20T12:00:37.727Z,28.01
2018-09-20T12:01:37.724Z,28.33
2018-09-20T12:02:37.724Z,28.32
2018-09-20T12:03:37.721Z,28.33
2018-09-20T12:04:37.713Z,28.58
2018-09-20T12:05:37.737Z,28.59
2018-09-20T12:06:37.715Z,28.66
2018-09-20T12:07:37.184Z,28.97
2018-09-20T12:08:37.713Z,28.85
2018-09-20T12:09:37.713Z,29.11
2018-09-20T12:10:37.444Z,29.2
2018-09-20T12:11:37.445Z,29.34
2018-09-20T12:12:37.492Z,29.35
2018-09-20T12:13:37.175Z,29.13
2018-09-20T12:14:37.905Z,28.62
2018-09-20T12:15:37.712Z,28.81
2018-09-20T12:16:37.450Z,29.22
2018-09-20T12:17:37.450Z,29.62
2018-09-20T12:18:37.438Z,29.35
2018-09-20T12:19:37.700Z,29.72
2018-09-20T12:20:37.445Z,29.93
2018-09-20T12:21:37.449Z,29.65
2018-09-20T12:22:37.710Z,29.49
2018-09-20T12:23:37.707Z,29.49
2018-09-20T12:24:37.438Z,29.56
2018-09-20T12:25:37.437Z,29.63
2018-09-20T12:26:37.453Z,29.81
2018-09-20T12:27:37.174Z,29.97
2018-09-20T12:28:37.442Z,30.18
2018-09-20T12:29:37.705Z,30.72
2018-09-20T12:30:37.447Z,30.99
2018-09-20T12:31:37.932Z,31.15
2018-09-20T12:32:37.458Z,31.49
2018-09-20T12:33:37.711Z,31.77
2018-09-20T12:34:37.718Z,31.36
2018-09-20T12:35:38.105Z,30.86
2018-09-20T12:36:37.717Z,30.09
2018-09-20T12:37:37.722Z,30.15
2018-09-20T12:38:37.573Z,30.27
2018-09-20T12:39:37.736Z,30
2018-09-20T12:40:37.463Z,29.96
2018-09-20T12:41:37.736Z,30.02
2018-09-20T12:42:37.241Z,29.92
2018-09-20T12:43:37.747Z,30.18
2018-09-20T12:44:37.733Z,30.15
2018-09-20T12:45:37.747Z,30.3
2018-09-20T12:46:37.478Z,30.74
2018-09-20T12:47:37.224Z,30.93
2018-09-20T12:48:37.958Z,31.28
2018-09-20T12:49:37.490Z,31.43
2018-09-20T12:50:37.492Z,31.49
2018-09-20T12:51:37.490Z,31.58
2018-09-20T12:52:37.759Z,31.82
2018-09-20T12:53:37.539Z,31.93
2018-09-20T12:54:37.894Z,32.13
2018-09-20T12:55:37.505Z,32.27